Time;durP1;ratioP1;P1;durP2;ratioP2;P2;SDS_P1;SDS_P2;PMS_P1;PMS_P2;Temp;Humidity;BMP_temperature;BMP_pressure;BME280_temperature;BME280_humidity;BME280_pressure;Samples;Min_cycle;Max_cycle;Signal;HPM_P1;HPM_P2
2022/06/13 00:00:48;;;;;;;1.45;1.35;;;16.90;98.00;;;;;;5042151;28;20195;-80
2022/06/13 00:03:14;;;;;;;1.35;1.35;;;;;;;;;;5044810;28;20313;-80
2022/06/13 00:05:40;;;;;;;1.27;1.25;;;16.90;98.00;;;;;;5035858;28;20191;-80
2022/06/13 00:08:06;;;;;;;1.50;1.50;;;16.90;97.90;;;;;;5044542;28;20179;-80
2022/06/13 00:10:32;;;;;;;1.27;1.27;;;16.90;98.00;;;;;;5041938;28;20188;-80
2022/06/13 00:12:58;;;;;;;1.15;1.15;;;16.80;98.00;;;;;;5041250;28;20186;-80
2022/06/13 00:15:24;;;;;;;1.35;1.35;;;16.80;98.10;;;;;;5039626;28;20208;-80
2022/06/13 00:17:50;;;;;;;1.20;1.20;;;16.80;98.30;;;;;;5043368;28;20171;-80
2022/06/13 00:20:15;;;;;;;1.73;1.63;;;16.70;98.40;;;;;;5042259;28;20184;-80
2022/06/13 00:22:41;;;;;;;1.50;1.50;;;16.70;98.40;;;;;;5043964;28;20610;-80
2022/06/13 00:25:08;;;;;;;1.33;1.33;;;16.70;98.40;;;;;;5042042;28;20183;-81
2022/06/13 00:27:34;;;;;;;2.13;2.03;;;16.70;98.20;;;;;;5044945;28;20292;-80
2022/06/13 00:30:01;;;;;;;1.83;1.73;;;16.70;98.00;;;;;;5044702;28;20647;-80
2022/06/13 00:32:27;;;;;;;1.52;1.52;;;16.60;98.00;;;;;;5044341;28;20853;-80
2022/06/13 00:34:52;;;;;;;1.30;1.30;;;16.60;97.80;;;;;;5044157;28;20243;-80
2022/06/13 00:37:18;;;;;;;2.10;2.00;;;16.60;97.70;;;;;;5042450;28;20759;-80
2022/06/13 00:39:44;;;;;;;1.52;1.52;;;16.60;97.80;;;;;;5044156;28;20187;-80
2022/06/13 00:42:15;;;;;;;1.38;1.27;;;16.60;97.70;;;;;;5043220;28;20596;-80
2022/06/13 00:44:41;;;;;;;1.98;1.88;;;16.60;98.40;;;;;;5040271;28;20270;-80
2022/06/13 00:47:10;;;;;;;1.45;1.45;;;16.60;98.10;;;;;;5043028;28;20763;-80
2022/06/13 00:49:40;;;;;;;1.50;1.45;;;16.60;98.30;;;;;;5042602;28;20179;-79
2022/06/13 00:52:26;;;;;;;8.02;1.23;;;16.60;98.40;;;;;;5044205;28;20187;-79
2022/06/13 00:54:53;;;;;;;1.40;1.40;;;16.60;97.90;;;;;;5043672;28;20207;-79
2022/06/13 00:57:22;;;;;;;1.80;1.70;;;16.50;97.90;;;;;;5044115;28;20241;-79
2022/06/13 00:59:53;;;;;;;1.42;1.33;;;16.50;98.20;;;;;;5042405;28;20269;-78
2022/06/13 01:02:19;;;;;;;1.70;1.70;;;16.60;98.30;;;;;;5041697;28;20249;-78
2022/06/13 01:04:48;;;;;;;1.85;1.70;;;16.60;98.20;;;;;;5042684;28;20188;-78
2022/06/13 01:07:14;;;;;;;1.65;1.55;;;16.50;98.00;;;;;;5040665;28;20187;-79
2022/06/13 01:12:26;;;;;;;4.18;1.48;;;16.50;97.90;;;;;;5043903;28;20273;-80
2022/06/13 01:15:07;;;;;;;1.67;1.55;;;16.40;98.10;;;;;;5044403;28;20214;-80
2022/06/13 01:17:44;;;;;;;2.22;2.00;;;16.40;97.90;;;;;;5042603;28;20362;-80
2022/06/13 01:20:38;;;;;;;3.25;1.30;;;16.40;98.20;;;;;;5039160;28;21014;-80
2022/06/13 01:23:16;;;;;;;2.50;1.40;;;16.30;97.80;;;;;;5043036;28;20584;-80
2022/06/13 01:25:50;;;;;;;1.77;1.67;;;16.30;98.00;;;;;;5044078;28;20195;-80
2022/06/13 01:28:43;;;;;;;1.63;1.52;;;16.30;98.00;;;;;;5038575;28;20256;-81
2022/06/13 01:31:56;;;;;;;1.90;1.50;;;16.30;97.90;;;;;;5041843;28;20207;-80
2022/06/13 01:34:31;;;;;;;1.67;1.63;;;16.30;98.10;;;;;;4999150;28;20180;-81
2022/06/13 01:37:16;;;;;;;1.23;1.20;;;16.30;98.20;;;;;;5000916;28;20935;-82
2022/06/13 01:39:48;;;;;;;2.05;1.95;;;16.20;97.70;;;;;;5002173;28;20188;-81
2022/06/13 01:42:40;;;;;;;3.83;1.88;;;16.20;97.80;;;;;;4997995;28;20217;-81
2022/06/13 01:45:30;;;;;;;1.40;1.40;;;16.20;97.50;;;;;;4996544;28;20264;-82
2022/06/13 01:48:17;;;;;;;1.60;1.60;;;16.20;97.50;;;;;;5000050;28;20193;-82
2022/06/13 01:51:15;;;;;;;1.85;1.52;;;16.20;97.40;;;;;;4980764;28;20231;-82
2022/06/13 01:53:57;;;;;;;1.38;1.38;;;16.20;97.30;;;;;;5002118;28;20199;-82
2022/06/13 01:56:54;;;;;;;1.75;1.75;;;16.20;97.40;;;;;;4999430;28;20295;-82
2022/06/13 01:59:27;;;;;;;1.40;1.38;;;16.20;97.60;;;;;;4998588;28;20762;-80
2022/06/13 02:02:40;;;;;;;1.15;1.15;;;16.20;98.10;;;;;;4996659;28;20199;-81
2022/06/13 02:05:13;;;;;;;1.40;1.40;;;16.20;98.50;;;;;;4943565;29;20198;-79
2022/06/13 02:07:49;;;;;;;1.35;1.35;;;16.20;98.30;;;;;;4949779;28;20200;-79
2022/06/13 02:10:33;;;;;;;1.40;1.40;;;16.10;97.70;;;;;;4983144;28;20213;-80
2022/06/13 02:13:07;;;;;;;1.33;1.33;;;16.10;97.40;;;;;;4965825;28;20239;-80
2022/06/13 02:15:47;;;;;;;1.92;1.85;;;16.10;98.30;;;;;;4980146;28;20225;-79
2022/06/13 02:18:22;;;;;;;1.42;1.42;;;16.10;98.20;;;;;;4982343;28;20185;-79
2022/06/13 02:20:51;;;;;;;1.48;1.48;;;16.20;98.50;;;;;;4982972;28;20713;-79
2022/06/13 02:23:21;;;;;;;1.60;1.60;;;16.20;98.50;;;;;;4978633;28;20256;-79
2022/06/13 02:25:55;;;;;;;1.83;1.73;;;16.10;98.50;;;;;;4974979;28;20182;-79
2022/06/13 02:28:27;;;;;;;2.60;1.40;;;16.10;98.30;;;;;;4981587;28;20194;-79
2022/06/13 02:31:01;;;;;;;1.27;1.27;;;16.10;98.50;;;;;;4980292;28;20189;-79
2022/06/13 02:33:39;;;;;;;1.40;1.30;;;16.00;98.50;;;;;;4980713;28;20193;-80
2022/06/13 02:36:14;;;;;;;5.00;1.42;;;16.00;98.50;;;;;;4980648;28;20320;-79
2022/06/13 02:38:46;;;;;;;1.58;1.58;;;16.00;98.20;;;;;;4980210;28;20193;-80
2022/06/13 02:41:15;;;;;;;1.75;1.30;;;16.00;98.10;;;;;;5001270;28;20247;-80
2022/06/13 02:43:52;;;;;;;1.55;1.45;;;16.00;98.20;;;;;;5041634;28;20182;-84
2022/06/13 02:46:49;;;;;;;1.85;1.63;;;16.00;98.10;;;;;;5043383;28;20274;-83
2022/06/13 02:49:27;;;;;;;1.50;1.48;;;16.00;98.50;;;;;;4982477;28;20197;-81
2022/06/13 02:52:14;;;;;;;1.27;1.27;;;16.00;98.50;;;;;;4981740;28;20196;-82
2022/06/13 02:54:51;;;;;;;2.63;1.33;;;16.00;98.40;;;;;;4979796;28;20645;-82
2022/06/13 02:57:35;;;;;;;1.23;1.23;;;16.00;98.50;;;;;;4977798;28;20186;-82
2022/06/13 03:00:06;;;;;;;3.63;1.50;;;16.00;98.50;;;;;;4983731;28;20209;-80
2022/06/13 03:02:56;;;;;;;1.65;1.55;;;16.00;98.50;;;;;;4980620;28;20185;-82
2022/06/13 03:05:41;;;;;;;1.50;1.40;;;16.00;98.50;;;;;;4975443;28;20938;-81
2022/06/13 03:08:28;;;;;;;1.73;1.63;;;16.00;98.50;;;;;;4982431;28;20732;-81
2022/06/13 03:11:23;;;;;;;2.50;1.38;;;16.00;98.50;;;;;;4978735;28;20228;-81
2022/06/13 03:14:22;;;;;;;1.42;1.42;;;16.00;98.50;;;;;;4976037;28;20233;-82
2022/06/13 03:17:02;;;;;;;1.27;1.27;;;15.90;98.30;;;;;;4981192;28;20768;-82
2022/06/13 03:24:45;;;;;;;1.55;1.45;;;16.00;98.50;;;;;;6073899;22;21521;-81
2022/06/13 03:27:35;;;;;;;1.75;1.65;;;16.00;98.30;;;;;;5047166;28;20195;-81
2022/06/13 03:30:08;;;;;;;2.22;1.67;;;16.00;98.50;;;;;;5042485;28;20199;-82
2022/06/13 03:33:39;;;;;;;1.52;1.52;;;16.00;98.50;;;;;;5044534;28;20713;-83
2022/06/13 03:35:33;;;;;;;1.33;1.33;;;16.00;98.50;;;;;;5046980;28;20211;-82
2022/06/13 03:38:01;;;;;;;1.27;1.27;;;16.10;98.50;;;;;;5041976;28;20188;-83
2022/06/13 03:40:28;;;;;;;2.10;1.55;;;16.10;98.50;;;;;;5044761;28;20245;-83
2022/06/13 03:43:04;;;;;;;2.17;1.52;;;16.10;98.50;;;;;;5045449;28;20278;-83
2022/06/13 03:45:48;;;;;;;1.50;1.40;;;16.20;98.50;;;;;;5046742;28;20658;-82
2022/06/13 03:48:25;;;;;;;1.95;1.85;;;16.20;98.50;;;;;;5045930;28;20196;-82
2022/06/13 03:51:00;;;;;;;1.75;1.65;;;16.20;98.50;;;;;;5042606;28;20629;-82
2022/06/13 03:53:34;;;;;;;1.95;1.85;;;16.30;98.50;;;;;;5046182;28;20586;-81
2022/06/13 03:56:26;;;;;;;2.30;2.17;;;16.30;98.50;;;;;;5045373;28;20207;-81
2022/06/13 03:59:13;;;;;;;2.17;2.08;;;16.40;98.50;;;;;;5038823;28;20233;-81
2022/06/13 04:01:44;;;;;;;2.58;2.47;;;16.40;98.50;;;;;;5044341;28;20617;-81
2022/06/13 04:04:18;;;;;;;1.63;1.58;;;16.40;98.50;;;;;;5043917;28;20883;-81
2022/06/13 04:06:44;;;;;;;2.58;2.08;;;16.50;98.50;;;;;;5037796;28;20266;-81
2022/06/13 04:09:22;;;;;;;1.58;1.58;;;16.50;98.50;;;;;;5045555;28;20259;-82
2022/06/13 04:12:06;;;;;;;4.53;2.63;;;16.50;98.50;;;;;;5040340;28;20264;-81
2022/06/13 04:14:44;;;;;;;2.25;2.25;;;16.60;98.50;;;;;;5041913;28;20568;-81
2022/06/13 04:17:34;;;;;;;1.85;1.85;;;16.60;98.50;;;;;;5040513;28;20245;-81
2022/06/13 04:20:00;;;;;;;2.90;2.30;;;16.70;98.50;;;;;;5041962;28;20202;-82
2022/06/13 04:22:40;;;;;;;2.42;2.22;;;16.80;98.50;;;;;;5045412;28;20265;-84
2022/06/13 04:25:33;;;;;;;2.38;2.20;;;16.80;98.50;;;;;;5055114;28;20281;-78
2022/06/13 04:28:05;;;;;;;2.20;2.15;;;16.90;98.50;;;;;;5055234;28;20938;-79
2022/06/13 04:30:34;;;;;;;2.58;2.42;;;16.90;98.50;;;;;;5054833;28;20188;-80
2022/06/13 04:33:09;;;;;;;7.20;2.10;;;17.00;98.50;;;;;;5056108;28;20197;-79
2022/06/13 04:35:36;;;;;;;4.30;2.33;;;17.00;98.50;;;;;;5054485;28;20213;-79
2022/06/13 04:38:08;;;;;;;2.85;2.75;;;17.00;98.50;;;;;;5041213;28;20180;-78
2022/06/13 04:40:39;;;;;;;2.45;2.08;;;17.10;98.50;;;;;;5047266;28;20199;-79
2022/06/13 04:43:11;;;;;;;2.58;2.47;;;17.00;98.50;;;;;;5050124;28;20190;-75
2022/06/13 04:45:58;;;;;;;2.42;2.33;;;17.10;98.50;;;;;;5041612;28;20211;-81
2022/06/13 04:48:25;;;;;;;2.50;2.33;;;17.10;98.50;;;;;;5053320;28;20243;-82
2022/06/13 04:50:57;;;;;;;2.88;2.70;;;17.10;98.50;;;;;;5043650;28;20257;-80
2022/06/13 04:53:31;;;;;;;2.50;2.33;;;17.20;98.50;;;;;;5044265;28;20180;-80
2022/06/13 04:55:59;;;;;;;3.88;2.47;;;17.20;98.50;;;;;;5051925;28;20830;-78
2022/06/13 04:58:34;;;;;;;2.30;2.20;;;17.20;98.50;;;;;;5043179;28;20191;-80
2022/06/13 05:01:11;;;;;;;2.78;2.67;;;17.30;98.50;;;;;;5041922;28;20190;-80
2022/06/13 05:03:42;;;;;;;2.88;2.72;;;17.30;98.50;;;;;;5044596;28;20274;-81
2022/06/13 05:06:16;;;;;;;2.55;2.42;;;17.30;98.50;;;;;;5042686;28;20214;-81
2022/06/13 05:08:43;;;;;;;3.28;2.60;;;17.30;98.50;;;;;;5041930;28;20443;-79
2022/06/13 05:11:27;;;;;;;2.85;2.65;;;17.30;98.50;;;;;;5043459;28;20191;-79
2022/06/13 05:13:57;;;;;;;2.42;2.25;;;17.40;98.50;;;;;;5048832;28;20184;-79
2022/06/13 05:16:23;;;;;;;2.70;2.60;;;17.40;98.50;;;;;;5045382;28;20211;-81
2022/06/13 05:19:01;;;;;;;2.85;2.65;;;17.40;98.50;;;;;;5047076;28;20188;-80
2022/06/13 05:21:33;;;;;;;5.45;2.67;;;17.50;98.50;;;;;;5037738;28;20726;-79
2022/06/13 05:24:20;;;;;;;2.50;2.40;;;17.50;98.50;;;;;;5044290;28;20192;-77
2022/06/13 05:26:46;;;;;;;2.65;2.45;;;17.60;98.50;;;;;;5041371;28;20200;-80
2022/06/13 05:29:11;;;;;;;2.28;2.17;;;17.70;98.50;;;;;;5042936;28;20206;-78
2022/06/13 05:31:38;;;;;;;2.45;2.35;;;17.70;98.50;;;;;;5042550;28;20171;-80
2022/06/13 05:34:19;;;;;;;2.45;2.35;;;17.70;98.50;;;;;;5044946;28;20856;-77
2022/06/13 05:36:45;;;;;;;2.25;2.25;;;17.80;98.50;;;;;;5042557;28;20200;-78
2022/06/13 05:39:12;;;;;;;3.28;2.33;;;17.80;98.50;;;;;;5042529;28;20192;-79
2022/06/13 05:41:38;;;;;;;3.10;2.90;;;17.90;98.50;;;;;;5043201;28;20880;-80
2022/06/13 05:44:06;;;;;;;3.03;2.72;;;18.00;98.50;;;;;;5041983;28;20187;-80
2022/06/13 05:46:34;;;;;;;3.10;2.90;;;18.10;98.50;;;;;;5041605;28;20759;-80
2022/06/13 05:49:00;;;;;;;2.67;2.50;;;18.10;98.50;;;;;;5039306;28;20603;-79
2022/06/13 05:51:27;;;;;;;2.42;2.30;;;18.20;98.50;;;;;;5037516;28;20682;-78
2022/06/13 05:53:52;;;;;;;2.03;1.98;;;18.20;98.50;;;;;;5038213;28;20397;-78
2022/06/13 05:56:20;;;;;;;2.45;2.35;;;18.30;98.50;;;;;;5041150;28;20213;-79
2022/06/13 05:58:46;;;;;;;1.63;1.63;;;18.40;98.50;;;;;;5030283;28;20184;-79
2022/06/13 06:01:13;;;;;;;6.03;1.90;;;18.40;98.50;;;;;;5042114;28;20175;-79
2022/06/13 06:03:40;;;;;;;1.63;1.63;;;18.50;98.50;;;;;;5040887;28;20617;-79
2022/06/13 06:06:06;;;;;;;2.22;2.13;;;18.50;98.50;;;;;;5037939;28;20257;-79
2022/06/13 06:08:35;;;;;;;2.15;2.05;;;18.50;98.50;;;;;;5042773;28;20264;-80
2022/06/13 06:11:01;;;;;;;2.60;2.50;;;18.60;98.50;;;;;;5039748;28;20266;-79
2022/06/13 06:13:28;;;;;;;2.92;2.08;;;18.60;98.50;;;;;;5038146;28;20262;-79
2022/06/13 06:15:55;;;;;;;2.55;2.45;;;18.70;98.50;;;;;;5039442;28;20209;-78
2022/06/13 06:18:22;;;;;;;2.42;2.22;;;18.80;98.50;;;;;;5042054;28;20180;-79
2022/06/13 06:20:48;;;;;;;2.70;2.53;;;18.80;98.50;;;;;;5036038;28;20663;-79
2022/06/13 06:23:14;;;;;;;2.83;2.72;;;18.90;98.40;;;;;;5038757;28;20238;-78
2022/06/13 06:25:41;;;;;;;3.08;2.88;;;18.90;98.40;;;;;;5040238;28;20205;-79
2022/06/13 06:28:09;;;;;;;2.50;2.40;;;19.00;98.40;;;;;;5039349;28;20191;-79
2022/06/13 06:30:34;;;;;;;2.40;2.20;;;19.00;98.30;;;;;;5036832;28;20168;-78
2022/06/13 06:33:00;;;;;;;2.63;2.53;;;19.10;98.30;;;;;;5042022;28;20184;-79
2022/06/13 06:35:29;;;;;;;2.60;2.45;;;19.20;98.10;;;;;;5040225;28;20457;-78
2022/06/13 06:37:55;;;;;;;2.42;2.25;;;19.20;97.40;;;;;;5041599;28;20310;-80
2022/06/13 06:40:25;;;;;;;3.33;1.95;;;19.30;96.60;;;;;;5040864;28;20186;-79
2022/06/13 06:42:52;;;;;;;2.55;2.35;;;19.30;96.70;;;;;;5042388;28;20191;-79
2022/06/13 06:45:18;;;;;;;2.42;2.33;;;19.40;96.90;;;;;;5038795;28;20199;-78
2022/06/13 06:47:44;;;;;;;1.98;1.98;;;19.40;96.60;;;;;;5039801;28;20684;-78
2022/06/13 06:50:19;;;;;;;2.58;2.00;;;19.40;96.90;;;;;;5042965;28;20180;-78
2022/06/13 06:52:45;;;;;;;2.53;2.42;;;19.50;95.50;;;;;;5045620;28;20179;-78
2022/06/13 07:00:46;;;;;;;2.42;2.33;;;19.70;94.80;;;;;;5042204;28;20193;-79
2022/06/13 07:03:12;;;;;;;1.65;1.55;;;19.50;92.90;;;;;;5041978;28;20184;-82
2022/06/13 07:05:38;;;;;;;1.88;1.73;;;19.60;94.50;;;;;;5044555;28;20658;-80
2022/06/13 07:08:04;;;;;;;2.40;2.30;;;19.70;94.80;;;;;;5043227;28;20190;-77
2022/06/13 07:10:30;;;;;;;2.03;1.92;;;19.80;94.90;;;;;;5045202;28;20256;-78
2022/06/13 07:12:56;;;;;;;1.73;1.50;;;19.90;94.70;;;;;;5043861;28;20175;-80
2022/06/13 07:15:22;;;;;;;1.70;1.70;;;19.90;95.20;;;;;;5043156;28;20238;-79
2022/06/13 07:17:47;;;;;;;2.40;1.90;;;20.00;95.20;;;;;;5044770;28;20560;-77
2022/06/13 07:20:14;;;;;;;2.03;1.92;;;20.00;95.10;;;;;;5045479;28;20211;-79
2022/06/13 07:22:51;;;;;;;1.85;1.75;;;20.10;92.40;;;;;;5040236;28;20191;-78
2022/06/13 07:25:22;;;;;;;4.65;2.30;;;20.20;91.60;;;;;;5038238;28;20853;-79
2022/06/13 07:27:48;;;;;;;1.83;1.73;;;20.20;91.80;;;;;;5042106;28;20187;-79
2022/06/13 07:30:15;;;;;;;1.77;1.70;;;20.30;92.30;;;;;;5051659;28;20576;-78
2022/06/13 07:32:41;;;;;;;1.90;1.80;;;20.30;93.20;;;;;;5040640;28;20180;-78
2022/06/13 07:35:08;;;;;;;2.45;2.28;;;20.40;93.30;;;;;;5035413;28;20272;-78
2022/06/13 07:40:19;;;;;;;1.70;1.60;;;20.50;93.30;;;;;;5039117;28;20195;-78
2022/06/13 07:42:49;;;;;;;2.25;2.15;;;20.70;92.70;;;;;;5036073;28;20185;-78
2022/06/13 07:45:20;;;;;;;3.33;2.20;;;20.70;92.30;;;;;;5040560;28;20176;-78
2022/06/13 07:47:46;;;;;;;1.65;1.65;;;20.70;92.50;;;;;;5044806;28;20261;-78
2022/06/13 07:50:17;;;;;;;2.38;2.28;;;20.80;92.20;;;;;;5044901;28;20576;-78
2022/06/13 07:52:43;;;;;;;2.05;1.95;;;20.90;90.50;;;;;;5041635;28;20650;-79
2022/06/13 07:55:09;;;;;;;2.00;2.00;;;21.00;91.00;;;;;;5043206;28;20222;-78
2022/06/13 07:57:36;;;;;;;2.97;2.30;;;21.10;91.50;;;;;;5040910;28;20191;-79
2022/06/13 08:00:04;;;;;;;1.85;1.80;;;21.20;89.30;;;;;;5039146;28;20188;-80
2022/06/13 08:02:33;;;;;;;1.65;1.55;;;21.20;90.10;;;;;;5039900;28;20183;-78
2022/06/13 08:04:59;;;;;;;6.35;2.17;;;21.30;90.60;;;;;;5043079;28;20275;-77
2022/06/13 08:07:24;;;;;;;4.43;2.25;;;21.40;90.60;;;;;;5039079;28;20763;-77
2022/06/13 08:09:50;;;;;;;1.52;1.42;;;21.40;90.80;;;;;;5042197;28;20184;-78
2022/06/13 08:12:19;;;;;;;1.50;1.50;;;21.50;91.00;;;;;;5040838;28;20685;-78
2022/06/13 08:14:48;;;;;;;2.00;1.90;;;21.60;91.20;;;;;;5040077;28;20179;-78
2022/06/13 08:17:20;;;;;;;2.25;2.15;;;21.80;90.50;;;;;;5040574;28;20203;-78
2022/06/13 08:19:47;;;;;;;1.60;1.60;;;21.90;90.40;;;;;;5043594;28;20576;-78
2022/06/13 08:22:14;;;;;;;1.85;1.83;;;22.00;91.20;;;;;;5040213;28;20641;-78
2022/06/13 08:24:41;;;;;;;1.98;1.98;;;22.10;90.60;;;;;;5038264;28;20191;-78
2022/06/13 08:27:08;;;;;;;1.80;1.80;;;22.20;88.30;;;;;;5042282;28;20263;-78
2022/06/13 08:29:34;;;;;;;3.53;2.30;;;22.30;90.10;;;;;;5039809;28;20180;-78
2022/06/13 08:32:01;;;;;;;1.80;1.80;;;22.50;87.60;;;;;;5041491;28;20203;-78
2022/06/13 08:34:28;;;;;;;1.60;1.60;;;22.50;85.00;;;;;;5034400;28;20245;-77
2022/06/13 08:36:56;;;;;;;1.77;1.77;;;22.60;87.50;;;;;;5042493;28;20766;-78
2022/06/13 08:39:22;;;;;;;2.17;2.08;;;22.70;88.30;;;;;;5039666;28;20739;-77
2022/06/13 08:42:09;;;;;;;1.73;1.65;;;22.90;88.50;;;;;;5037958;28;20249;-78
2022/06/13 08:44:40;;;;;;;1.83;1.80;;;23.00;88.90;;;;;;5039106;28;20187;-78
2022/06/13 08:47:13;;;;;;;1.55;1.55;;;23.20;88.40;;;;;;5038124;28;20584;-77
2022/06/13 08:49:45;;;;;;;1.70;1.70;;;23.30;88.50;;;;;;5039581;28;20188;-78
2022/06/13 08:52:13;;;;;;;1.30;1.30;;;23.50;86.90;;;;;;5040963;28;20184;-77
2022/06/13 08:54:41;;;;;;;1.67;1.67;;;23.70;85.40;;;;;;5036842;28;20184;-78
2022/06/13 08:57:10;;;;;;;1.80;1.77;;;23.90;85.60;;;;;;5027677;28;20303;-78
2022/06/13 08:59:51;;;;;;;1.70;1.70;;;24.00;86.40;;;;;;5038505;28;20266;-78
2022/06/13 09:02:33;;;;;;;1.83;1.83;;;24.20;86.30;;;;;;5039593;28;20179;-78
2022/06/13 09:05:05;;;;;;;2.00;2.00;;;24.40;85.20;;;;;;5040181;28;20732;-78
2022/06/13 09:07:41;;;;;;;2.83;2.15;;;24.60;84.20;;;;;;5039429;28;20308;-77
2022/06/13 09:10:09;;;;;;;2.00;2.00;;;24.70;82.40;;;;;;5038171;28;20621;-78
2022/06/13 09:13:02;;;;;;;2.05;2.05;;;24.90;81.90;;;;;;5037922;28;20180;-77
2022/06/13 09:15:35;;;;;;;2.10;2.10;;;25.00;82.40;;;;;;5042260;28;20619;-78
2022/06/13 09:18:23;;;;;;;1.98;1.88;;;25.20;82.20;;;;;;5037469;28;20191;-77
2022/06/13 09:21:00;;;;;;;2.22;2.10;;;25.30;76.50;;;;;;5035605;28;20214;-81
2022/06/13 09:23:40;;;;;;;2.22;2.13;;;25.40;78.70;;;;;;5030539;28;20274;-79
2022/06/13 09:26:15;;;;;;;1.75;1.65;;;25.40;76.40;;;;;;5039190;28;20249;-78
2022/06/13 09:29:05;;;;;;;1.90;1.90;;;25.40;74.20;;;;;;5036314;28;20191;-79
2022/06/13 09:31:36;;;;;;;2.88;2.03;;;25.40;77.40;;;;;;5038333;28;20206;-77
2022/06/13 09:34:21;;;;;;;4.20;2.10;;;25.40;78.30;;;;;;5037959;28;20330;-78
2022/06/13 09:37:10;;;;;;;1.80;1.80;;;25.40;78.80;;;;;;5038632;28;20200;-76
2022/06/13 09:39:37;;;;;;;2.28;2.28;;;25.40;80.40;;;;;;5038929;28;20308;-74
2022/06/13 09:42:32;;;;;;;1.90;1.90;;;25.60;80.90;;;;;;5042658;28;20249;-76
2022/06/13 09:45:02;;;;;;;5.40;2.35;;;25.60;80.20;;;;;;5010815;28;20248;-77
2022/06/13 09:47:45;;;;;;;2.03;2.03;;;25.80;78.90;;;;;;4990779;28;20204;-76
2022/06/13 09:50:38;;;;;;;2.08;2.05;;;25.90;78.00;;;;;;4988060;28;20362;-76
2022/06/13 09:53:38;;;;;;;2.60;2.40;;;26.10;77.70;;;;;;4999907;28;20331;-76
2022/06/13 09:56:22;;;;;;;4.90;2.28;;;26.30;78.50;;;;;;5004357;28;20228;-74
2022/06/13 09:59:08;;;;;;;2.17;2.08;;;26.40;78.40;;;;;;4984134;28;20725;-74
2022/06/13 10:01:47;;;;;;;2.65;2.47;;;26.60;76.90;;;;;;5003679;28;20200;-76
2022/06/13 10:04:54;;;;;;;1.77;1.77;;;26.70;74.70;;;;;;5006746;28;20274;-76
2022/06/13 10:07:30;;;;;;;1.83;1.83;;;26.90;74.40;;;;;;4946752;28;20192;-75
2022/06/13 10:10:10;;;;;;;2.05;2.05;;;26.90;73.90;;;;;;4966650;28;20182;-75
2022/06/13 10:12:44;;;;;;;1.80;1.77;;;27.10;72.00;;;;;;4947919;28;20480;-77
2022/06/13 10:15:24;;;;;;;1.75;1.75;;;27.10;71.70;;;;;;4957061;28;20681;-75
2022/06/13 10:18:26;;;;;;;1.90;1.77;;;27.20;72.60;;;;;;4957768;28;20267;-78
2022/06/13 10:21:00;;;;;;;4.03;2.53;;;27.20;73.70;;;;;;4968560;28;20189;-77
2022/06/13 10:23:47;;;;;;;2.15;2.13;;;27.30;74.00;;;;;;4977815;28;20651;-78
2022/06/13 10:26:21;;;;;;;2.42;2.08;;;27.60;72.20;;;;;;4982115;28;20219;-77
2022/06/13 10:29:13;;;;;;;2.47;2.38;;;27.90;70.40;;;;;;4982767;28;20213;-75
2022/06/13 10:31:42;;;;;;;2.08;2.08;;;28.20;70.20;;;;;;4980562;28;20284;-77
2022/06/13 10:34:24;;;;;;;2.00;1.90;;;28.40;70.10;;;;;;4982255;28;20620;-75
2022/06/13 10:37:24;;;;;;;2.08;2.05;;;28.60;69.30;;;;;;4976718;28;20201;-77
2022/06/13 10:39:54;;;;;;;2.55;2.45;;;28.90;68.70;;;;;;5039763;28;20188;-78
2022/06/13 10:42:24;;;;;;;2.92;2.53;;;28.90;68.70;;;;;;5038506;28;20197;-78
2022/06/13 10:44:50;;;;;;;4.30;2.95;;;29.10;67.70;;;;;;5040706;28;20180;-76
2022/06/13 10:47:32;;;;;;;2.67;2.58;;;29.40;68.30;;;;;;5038479;28;20759;-76
2022/06/13 10:50:16;;;;;;;2.95;2.83;;;29.70;68.40;;;;;;5041180;28;20711;-74
2022/06/13 10:52:47;;;;;;;2.22;2.13;;;29.80;67.60;;;;;;5043291;28;20778;-77
2022/06/13 10:55:19;;;;;;;2.97;2.75;;;30.10;66.10;;;;;;5044296;28;20256;-78
2022/06/13 10:57:49;;;;;;;2.83;2.63;;;30.30;65.60;;;;;;5044935;28;20183;-77
2022/06/13 11:00:22;;;;;;;2.67;2.58;;;30.90;65.10;;;;;;5042015;28;20557;-76
2022/06/13 11:02:49;;;;;;;2.47;2.47;;;31.20;66.30;;;;;;5040851;28;20179;-77
2022/06/13 11:05:18;;;;;;;2.53;2.42;;;31.50;64.40;;;;;;5044103;28;20237;-77
2022/06/13 11:07:57;;;;;;;3.00;2.90;;;31.50;62.50;;;;;;5043930;28;20176;-77
2022/06/13 11:10:36;;;;;;;2.70;2.60;;;31.80;65.70;;;;;;5040168;28;20415;-77
2022/06/13 11:13:13;;;;;;;2.50;2.42;;;32.60;61.00;;;;;;5039195;28;20183;-75
2022/06/13 11:24:15;;;;;;;2.35;2.25;;;33.00;61.10;;;;;;5041753;28;20198;-75
2022/06/13 11:29:29;;;;;;;2.53;2.53;;;33.80;59.30;;;;;;5044791;28;20719;-75
2022/06/13 11:32:00;;;;;;;2.75;2.63;;;34.40;59.10;;;;;;5041840;28;20183;-79
2022/06/13 11:34:38;;;;;;;2.20;2.20;;;34.80;58.70;;;;;;5038836;28;20195;-79
2022/06/13 11:37:12;;;;;;;2.72;2.65;;;35.10;58.70;;;;;;5039374;28;20293;-79
2022/06/13 11:39:43;;;;;;;2.78;2.67;;;35.40;57.80;;;;;;5039932;28;20562;-78
2022/06/13 11:42:30;;;;;;;3.00;2.90;;;35.70;61.10;;;;;;5041424;28;20580;-75
2022/06/13 11:44:58;;;;;;;2.63;2.42;;;35.90;55.40;;;;;;5043438;28;20656;-75
2022/06/13 11:47:26;;;;;;;2.90;2.70;;;36.10;56.20;;;;;;5041821;28;20690;-76
2022/06/13 11:49:57;;;;;;;2.40;2.30;;;36.40;55.80;;;;;;5041629;28;20171;-75
2022/06/13 11:55:43;;;;;;;2.50;2.50;;;37.20;57.90;;;;;;5038474;28;20521;-74
2022/06/13 11:58:19;;;;;;;2.58;2.58;;;37.50;52.20;;;;;;5038943;28;20195;-76
2022/06/13 12:00:51;;;;;;;2.92;2.83;;;37.90;51.40;;;;;;5039716;28;20262;-76
2022/06/13 12:03:24;;;;;;;3.17;3.08;;;37.70;52.50;;;;;;5041015;28;20261;-75
2022/06/13 12:06:13;;;;;;;3.53;3.33;;;37.40;53.30;;;;;;5040028;28;20179;-75
2022/06/13 12:08:40;;;;;;;3.25;3.22;;;37.30;53.10;;;;;;5038953;28;20179;-75
2022/06/13 12:11:20;;;;;;;2.70;2.70;;;37.00;53.40;;;;;;5038604;28;20179;-76
2022/06/13 12:13:50;;;;;;;2.97;2.97;;;36.70;53.50;;;;;;5039346;28;20289;-75
2022/06/13 12:16:54;;;;;;;3.80;3.00;;;36.60;52.40;;;;;;5037210;28;20207;-76
2022/06/13 12:19:52;;;;;;;4.30;2.72;;;36.60;57.60;;;;;;4988188;28;20263;-74
2022/06/13 12:22:48;;;;;;;3.17;3.08;;;36.60;57.70;;;;;;4929074;29;20196;-75
2022/06/13 12:25:24;;;;;;;3.10;3.05;;;36.40;55.20;;;;;;4928064;29;20278;-77
2022/06/13 12:28:13;;;;;;;3.72;3.50;;;36.10;56.10;;;;;;4927762;29;20360;-77
2022/06/13 12:30:58;;;;;;;3.17;3.08;;;35.40;56.30;;;;;;4924599;29;20262;-75
2022/06/13 12:33:53;;;;;;;5.07;3.30;;;35.20;57.10;;;;;;4928420;29;20182;-77
2022/06/13 12:36:43;;;;;;;3.05;2.95;;;35.30;55.80;;;;;;4928060;29;20691;-75
2022/06/13 12:39:20;;;;;;;3.30;3.10;;;35.40;55.40;;;;;;4929569;29;20439;-76
2022/06/13 12:42:22;;;;;;;3.45;3.25;;;35.70;53.90;;;;;;4929342;29;20186;-77
2022/06/13 12:45:15;;;;;;;3.25;3.10;;;36.20;54.10;;;;;;4926005;29;20190;-76
2022/06/13 12:47:56;;;;;;;3.22;3.08;;;36.80;52.70;;;;;;4924221;29;20188;-76
2022/06/13 12:50:33;;;;;;;3.65;3.55;;;36.90;51.90;;;;;;4924592;28;20306;-77
2022/06/13 12:53:24;;;;;;;3.05;2.95;;;36.80;51.40;;;;;;4930276;29;20668;-77
2022/06/13 12:56:01;;;;;;;3.40;3.20;;;36.90;52.80;;;;;;4924949;28;20222;-78
2022/06/13 12:58:55;;;;;;;3.38;2.65;;;37.00;52.60;;;;;;5007664;28;20607;-77
2022/06/13 13:01:45;;;;;;;3.28;3.17;;;37.40;51.20;;;;;;5038973;28;20686;-77
2022/06/13 13:04:37;;;;;;;3.10;3.05;;;37.80;52.20;;;;;;5039232;28;20186;-76
2022/06/13 13:07:16;;;;;;;3.40;3.30;;;37.50;52.60;;;;;;5040378;28;20180;-77
2022/06/13 13:10:10;;;;;;;3.58;3.40;;;37.10;53.10;;;;;;5037318;28;21100;-78
2022/06/13 13:12:54;;;;;;;3.65;3.28;;;37.00;55.20;;;;;;5038705;28;20280;-76
2022/06/13 13:15:47;;;;;;;2.92;2.80;;;37.20;52.40;;;;;;5039756;28;20194;-76
2022/06/13 13:18:38;;;;;;;3.45;3.30;;;37.40;50.10;;;;;;4984978;28;20261;-75
2022/06/13 13:21:19;;;;;;;3.25;3.15;;;37.80;50.60;;;;;;5008283;28;20246;-77
2022/06/13 13:24:00;;;;;;;3.05;3.05;;;38.30;50.30;;;;;;5008546;28;20353;-75
2022/06/13 13:26:50;;;;;;;6.93;3.53;;;38.60;49.60;;;;;;5008408;28;20958;-76
2022/06/13 13:29:47;;;;;;;4.00;3.83;;;38.90;48.40;;;;;;5007839;28;20298;-76
2022/06/13 13:32:54;;;;;;;3.05;3.05;;;39.30;48.60;;;;;;5000787;28;20346;-76
2022/06/13 13:35:36;;;;;;;3.30;3.20;;;39.40;49.20;;;;;;5001303;28;20224;-76
2022/06/13 13:38:08;;;;;;;3.80;3.63;;;39.60;46.90;;;;;;5007741;28;20286;-75
2022/06/13 13:40:52;;;;;;;3.40;3.20;;;39.80;47.50;;;;;;5001428;28;20215;-78
2022/06/13 13:43:40;;;;;;;3.45;3.45;;;39.80;47.50;;;;;;5004270;28;20195;-76
2022/06/13 13:46:27;;;;;;;3.70;3.60;;;39.90;46.30;;;;;;4999050;28;20282;-78
2022/06/13 13:49:06;;;;;;;3.08;2.97;;;40.00;46.50;;;;;;4986612;28;20650;-77
2022/06/13 13:51:37;;;;;;;3.45;3.35;;;40.10;48.40;;;;;;5008978;28;20188;-77
2022/06/13 13:54:12;;;;;;;3.35;3.25;;;40.10;45.90;;;;;;5005386;28;20351;-76
2022/06/13 13:57:10;;;;;;;2.85;2.85;;;40.10;49.00;;;;;;5037721;28;20225;-77
2022/06/13 13:59:41;;;;;;;3.17;2.97;;;40.00;47.70;;;;;;4998526;28;20282;-76
2022/06/13 14:02:08;;;;;;;3.78;3.67;;;39.60;48.40;;;;;;4977176;28;20196;-76